Time;durP1;ratioP1;P1;durP2;ratioP2;P2;SDS_P1;SDS_P2;PMS_P1;PMS_P2;Temp;Humidity;BMP_temperature;BMP_pressure;BME280_temperature;BME280_humidity;BME280_pressure;Samples;Min_cycle;Max_cycle;Signal;HPM_P1;HPM_P2
2024/04/11 00:01:55;;;;;;;;;;;;;;;10.73;70.57;93596.53;5412145;26;20325;-71
2024/04/11 00:04:20;;;;;;;;;;;;;;;10.68;69.78;93604.84;5403344;26;19944;-71
2024/04/11 00:06:45;;;;;;;;;;;;;;;10.67;69.66;93595.56;5408918;26;20306;-71
2024/04/11 00:09:11;;;;;;;;;;;;;;;10.60;68.99;93594.00;5404117;26;19929;-71
2024/04/11 00:11:36;;;;;;;;;;;;;;;10.44;71.04;93598.53;5403210;26;20365;-71
2024/04/11 00:14:01;;;;;;;;;;;;;;;10.36;71.96;93598.69;5409562;26;19929;-71
2024/04/11 00:16:27;;;;;;;;;;;;;;;10.33;71.14;93597.34;5408624;26;19998;-71
2024/04/11 00:18:52;;;;;;;;;;;;;;;10.36;70.84;93596.13;5412023;26;20003;-71
2024/04/11 00:21:18;;;;;;;;;;;;;;;10.28;71.14;93595.34;5411531;26;19940;-71
2024/04/11 00:23:47;;;;;;;;;;;;;;;10.22;71.03;93600.47;5411175;26;19991;-71
2024/04/11 00:26:13;;;;;;;;;;;;;;;10.14;71.38;93597.13;5404467;26;19930;-71
2024/04/11 00:28:38;;;;;;;;;;;;;;;10.09;71.80;93594.34;5408672;26;19936;-71
2024/04/11 00:31:04;;;;;;;;;;;;;;;9.99;72.37;93591.38;5395660;26;19930;-71
2024/04/11 00:33:29;;;;;;;;;;;;;;;9.92;72.67;93601.66;5405470;26;19928;-71
2024/04/11 00:35:54;;;;;;;;;;;;;;;9.91;72.36;93597.53;5402615;26;19929;-71
2024/04/11 00:38:20;;;;;;;;;;;;;;;9.83;72.94;93595.94;5399926;26;20011;-71
2024/04/11 00:40:55;;;;;;;;;;;;;;;9.84;72.69;93596.69;5407448;26;19936;-71
2024/04/11 00:43:20;;;;;;;;;;;;;;;9.82;72.98;93602.03;5409477;26;19936;-71
2024/04/11 00:45:47;;;;;;;;;;;;;;;9.79;73.21;93599.06;5404461;26;19928;-71
2024/04/11 00:48:13;;;;;;;;;;;;;;;9.77;73.40;93604.41;5411604;26;20349;-71
2024/04/11 00:50:41;;;;;;;;;;;;;;;9.72;73.67;93604.97;5404282;26;19938;-71
2024/04/11 00:53:08;;;;;;;;;;;;;;;9.73;74.00;93598.06;5403458;26;20023;-71
2024/04/11 00:55:35;;;;;;;;;;;;;;;9.79;73.37;93591.38;5407928;26;19975;-71
2024/04/11 00:58:01;;;;;;;;;;;;;;;9.78;72.99;93598.28;5404033;26;20364;-71
2024/04/11 01:00:27;;;;;;;;;;;;;;;9.63;74.97;93596.66;5433822;26;19943;-71
2024/04/11 01:02:52;;;;;;;;;;;;;;;9.62;74.60;93596.84;5400330;26;19929;-71
2024/04/11 01:05:18;;;;;;;;;;;;;;;9.62;74.66;93605.34;5407456;26;19937;-71
2024/04/11 01:07:50;;;;;;;;;;;;;;;9.60;74.33;93601.41;5401520;26;19929;-71
2024/04/11 01:10:17;;;;;;;;;;;;;;;9.59;74.13;93602.38;5409922;26;19928;-71
2024/04/11 01:12:42;;;;;;;;;;;;;;;9.52;74.28;93602.34;5404911;26;19987;-71
2024/04/11 01:15:10;;;;;;;;;;;;;;;9.47;74.46;93597.81;5410859;26;19933;-71
2024/04/11 01:17:35;;;;;;;;;;;;;;;9.42;73.95;93607.06;5406380;26;19998;-71
2024/04/11 01:20:01;;;;;;;;;;;;;;;9.35;74.33;93612.94;5407439;26;19956;-71
2024/04/11 01:22:26;;;;;;;;;;;;;;;9.31;75.06;93614.31;5404646;26;20026;-72
2024/04/11 01:24:52;;;;;;;;;;;;;;;9.27;74.50;93612.34;5408763;26;19929;-72
2024/04/11 01:27:20;;;;;;;;;;;;;;;9.20;74.52;93618.22;5406610;26;20009;-72
2024/04/11 01:29:49;;;;;;;;;;;;;;;9.19;75.17;93613.28;5406746;26;19929;-72
2024/04/11 01:32:15;;;;;;;;;;;;;;;9.11;75.67;93618.59;5407895;26;19937;-72
2024/04/11 01:34:40;;;;;;;;;;;;;;;9.05;75.47;93615.00;5401497;26;19928;-72
2024/04/11 01:37:05;;;;;;;;;;;;;;;8.99;76.15;93620.88;5409488;26;19938;-72
2024/04/11 01:39:31;;;;;;;;;;;;;;;8.92;76.73;93615.72;5405089;26;19929;-71
2024/04/11 01:41:56;;;;;;;;;;;;;;;8.90;76.68;93610.00;5407823;26;20292;-71
2024/04/11 01:44:22;;;;;;;;;;;;;;;8.84;77.06;93618.44;5402090;26;19936;-71
2024/04/11 01:46:48;;;;;;;;;;;;;;;8.89;78.33;93621.22;5405222;26;19929;-71
2024/04/11 01:49:15;;;;;;;;;;;;;;;8.92;78.79;93613.94;5407232;26;19929;-71
2024/04/11 01:51:41;;;;;;;;;;;;;;;8.91;77.67;93603.88;5405373;26;20007;-71
2024/04/11 01:54:06;;;;;;;;;;;;;;;8.91;78.08;93609.81;5404635;26;20357;-71
2024/04/11 01:56:34;;;;;;;;;;;;;;;8.85;80.87;93622.56;5406820;26;20002;-71
2024/04/11 01:59:03;;;;;;;;;;;;;;;8.87;79.11;93615.47;5407186;26;20003;-71
2024/04/11 02:01:33;;;;;;;;;;;;;;;8.88;79.45;93617.09;5405334;26;20064;-71
2024/04/11 02:03:58;;;;;;;;;;;;;;;8.84;79.86;93624.34;5409491;26;19937;-71
2024/04/11 02:06:24;;;;;;;;;;;;;;;8.79;79.82;93624.91;5405726;26;19937;-71
2024/04/11 02:08:49;;;;;;;;;;;;;;;8.80;79.46;93611.13;5402719;26;19940;-71
2024/04/11 02:11:15;;;;;;;;;;;;;;;8.88;78.25;93622.22;5408780;26;19929;-71
2024/04/11 02:13:41;;;;;;;;;;;;;;;8.82;78.82;93631.44;5403351;26;19937;-72
2024/04/11 02:16:07;;;;;;;;;;;;;;;8.67;78.66;93621.28;5408340;26;19929;-72
2024/04/11 02:18:33;;;;;;;;;;;;;;;8.58;79.28;93615.53;5404497;26;20332;-71
2024/04/11 02:20:58;;;;;;;;;;;;;;;8.36;80.74;93623.22;5404450;26;19937;-71
2024/04/11 02:23:24;;;;;;;;;;;;;;;8.40;79.42;93634.69;5404622;26;20463;-71
2024/04/11 02:25:51;;;;;;;;;;;;;;;8.34;79.60;93635.38;5407566;26;19937;-71
2024/04/11 02:28:17;;;;;;;;;;;;;;;8.30;79.99;93626.53;5407272;26;19940;-71
2024/04/11 02:30:43;;;;;;;;;;;;;;;8.27;80.02;93625.13;5399838;26;19937;-71
2024/04/11 02:33:10;;;;;;;;;;;;;;;8.23;80.43;93636.69;5404477;26;20371;-71
2024/04/11 02:35:38;;;;;;;;;;;;;;;8.22;80.63;93635.13;5405208;26;19940;-71
2024/04/11 02:38:03;;;;;;;;;;;;;;;8.16;81.89;93635.84;5401927;26;19936;-71
2024/04/11 02:40:29;;;;;;;;;;;;;;;8.07;81.89;93640.31;5405577;26;19939;-71
2024/04/11 02:42:55;;;;;;;;;;;;;;;8.12;81.67;93650.78;5408152;26;19929;-71
2024/04/11 02:45:21;;;;;;;;;;;;;;;8.10;81.82;93644.25;5407091;26;19987;-71
2024/04/11 02:47:47;;;;;;;;;;;;;;;8.09;82.53;93642.66;5406023;26;20384;-71
2024/04/11 02:50:16;;;;;;;;;;;;;;;7.95;82.84;93646.88;5402939;26;19929;-71
2024/04/11 02:52:44;;;;;;;;;;;;;;;7.93;82.80;93644.50;5407972;26;19937;-71
2024/04/11 02:55:11;;;;;;;;;;;;;;;8.01;82.47;93648.72;5407220;26;20440;-71
2024/04/11 02:57:36;;;;;;;;;;;;;;;8.07;80.94;93652.28;5402219;26;20256;-71
2024/04/11 03:00:01;;;;;;;;;;;;;;;8.05;81.40;93657.59;5406661;26;20061;-71
2024/04/11 03:02:29;;;;;;;;;;;;;;;8.01;81.97;93657.16;5404690;26;19929;-71
2024/04/11 03:04:57;;;;;;;;;;;;;;;7.95;82.23;93655.34;5410425;26;19937;-71
2024/04/11 03:07:22;;;;;;;;;;;;;;;7.91;82.38;93661.78;5406743;26;20443;-71
2024/04/11 03:09:48;;;;;;;;;;;;;;;7.85;82.90;93663.31;5410042;26;19929;-71
2024/04/11 03:12:14;;;;;;;;;;;;;;;7.84;83.21;93664.28;5409701;26;20269;-71
2024/04/11 03:14:39;;;;;;;;;;;;;;;7.77;84.28;93660.84;5405452;26;19954;-71
2024/04/11 03:17:05;;;;;;;;;;;;;;;7.53;88.17;93662.78;5407724;26;20272;-71
2024/04/11 03:19:30;;;;;;;;;;;;;;;7.43;88.21;93667.38;5408290;26;19944;-71
2024/04/11 03:21:56;;;;;;;;;;;;;;;7.48;86.49;93672.75;5407539;26;19957;-71
2024/04/11 03:24:21;;;;;;;;;;;;;;;7.57;85.47;93689.56;5407807;26;19933;-71
2024/04/11 03:26:47;;;;;;;;;;;;;;;7.60;85.35;93684.09;5406432;26;20005;-72
2024/04/11 03:29:14;;;;;;;;;;;;;;;7.53;85.08;93680.66;5408314;26;20047;-71
2024/04/11 03:31:39;;;;;;;;;;;;;;;7.52;86.39;93693.63;5408191;26;19929;-71
2024/04/11 03:34:04;;;;;;;;;;;;;;;7.51;86.66;93687.72;5410696;26;20348;-71
2024/04/11 03:36:32;;;;;;;;;;;;;;;7.55;85.99;93690.72;5408173;26;19928;-71
2024/04/11 03:38:57;;;;;;;;;;;;;;;7.59;85.04;93692.72;5404125;26;19940;-71
2024/04/11 03:41:22;;;;;;;;;;;;;;;7.62;83.86;93689.81;5410067;26;20803;-72
2024/04/11 03:43:54;;;;;;;;;;;;;;;7.63;83.57;93690.59;5402794;26;20002;-72
2024/04/11 03:46:21;;;;;;;;;;;;;;;7.64;84.30;93697.28;5408405;26;20280;-72
2024/04/11 03:48:47;;;;;;;;;;;;;;;7.57;83.81;93701.53;5410652;26;19929;-72
2024/04/11 03:51:15;;;;;;;;;;;;;;;7.51;83.45;93697.16;5411684;26;19998;-72
2024/04/11 03:53:41;;;;;;;;;;;;;;;7.49;83.30;93698.13;5401409;26;20338;-72
2024/04/11 03:56:07;;;;;;;;;;;;;;;7.51;84.21;93699.72;5401291;26;19944;-72
2024/04/11 03:58:36;;;;;;;;;;;;;;;7.46;84.89;93697.69;5409478;26;19936;-72
2024/04/11 04:01:02;;;;;;;;;;;;;;;7.49;84.35;93702.44;5409098;26;19936;-72
2024/04/11 04:03:27;;;;;;;;;;;;;;;7.49;84.36;93705.00;5409275;26;19953;-72
2024/04/11 04:05:53;;;;;;;;;;;;;;;7.49;84.72;93705.78;5412145;26;19979;-72
2024/04/11 04:08:18;;;;;;;;;;;;;;;7.50;85.61;93701.47;5404343;26;19936;-71
2024/04/11 04:10:43;;;;;;;;;;;;;;;7.51;85.48;93708.19;5404239;26;19937;-72
2024/04/11 04:13:10;;;;;;;;;;;;;;;7.56;84.93;93700.78;5411273;26;20277;-72
2024/04/11 04:15:36;;;;;;;;;;;;;;;7.56;84.08;93705.88;5407092;26;19929;-72
2024/04/11 04:18:03;;;;;;;;;;;;;;;7.21;89.12;93696.19;5409793;26;19929;-71
2024/04/11 04:20:28;;;;;;;;;;;;;;;7.20;90.55;93712.50;5410497;26;20013;-72
2024/04/11 04:22:53;;;;;;;;;;;;;;;7.28;89.42;93703.16;5430078;26;20615;-71
2024/04/11 04:25:19;;;;;;;;;;;;;;;7.37;87.94;93714.88;5416071;26;19929;-72
2024/04/11 04:27:44;;;;;;;;;;;;;;;7.48;86.53;93721.31;5415311;26;19936;-71
2024/04/11 04:30:11;;;;;;;;;;;;;;;7.42;85.75;93716.91;5431377;26;20542;-71
2024/04/11 04:32:37;;;;;;;;;;;;;;;7.35;85.66;93715.06;5415647;26;20375;-71
2024/04/11 04:35:06;;;;;;;;;;;;;;;7.45;85.70;93726.78;5423699;26;19933;-72
2024/04/11 04:37:31;;;;;;;;;;;;;;;7.44;85.62;93723.44;5415938;26;19929;-72
2024/04/11 04:39:59;;;;;;;;;;;;;;;7.48;85.87;93726.41;5414018;26;20357;-72
2024/04/11 04:42:24;;;;;;;;;;;;;;;7.34;85.00;93695.59;5424389;26;19928;-72
2024/04/11 04:44:50;;;;;;;;;;;;;;;7.51;86.68;93732.94;5412217;26;20238;-72
2024/04/11 04:47:16;;;;;;;;;;;;;;;7.49;86.59;93718.56;5421170;26;19928;-72
2024/04/11 04:49:44;;;;;;;;;;;;;;;7.41;89.84;93740.88;5412822;26;19936;-71
2024/04/11 04:52:10;;;;;;;;;;;;;;;7.60;87.42;93722.44;5410278;26;19949;-72
2024/04/11 04:54:35;;;;;;;;;;;;;;;7.71;89.45;93740.84;5408577;26;19936;-72
2024/04/11 04:57:00;;;;;;;;;;;;;;;7.84;86.60;93747.91;5425397;26;19929;-72
2024/04/11 04:59:26;;;;;;;;;;;;;;;7.78;92.04;93744.28;5415610;26;20332;-72
2024/04/11 05:01:51;;;;;;;;;;;;;;;8.01;89.25;93741.59;5436328;26;19940;-72
2024/04/11 05:04:17;;;;;;;;;;;;;;;8.15;90.67;93737.41;5417458;26;19937;-72
2024/04/11 05:06:42;;;;;;;;;;;;;;;8.45;85.61;93733.16;5412672;26;19979;-72
2024/04/11 05:09:10;;;;;;;;;;;;;;;8.66;85.33;93742.63;5407710;26;19929;-72
2024/04/11 05:11:35;;;;;;;;;;;;;;;8.65;92.31;93752.09;5410576;26;19929;-72
2024/04/11 05:14:07;;;;;;;;;;;;;;;8.72;89.21;93739.34;5422486;26;19940;-72
2024/04/11 05:16:33;;;;;;;;;;;;;;;8.77;88.53;93743.91;5406392;26;20015;-72
2024/04/11 05:18:58;;;;;;;;;;;;;;;8.81;92.32;93750.25;5424653;26;19929;-72
2024/04/11 05:21:24;;;;;;;;;;;;;;;9.02;87.76;93748.63;5444793;26;19936;-72
2024/04/11 05:23:50;;;;;;;;;;;;;;;9.19;88.92;93752.50;5420899;26;19939;-72
2024/04/11 05:26:15;;;;;;;;;;;;;;;9.23;86.63;93768.28;5411837;26;19935;-72
2024/04/11 05:28:44;;;;;;;;;;;;;;;9.50;83.96;93758.19;5412270;26;19964;-72
2024/04/11 05:31:11;;;;;;;;;;;;;;;9.69;84.15;93766.19;5411913;26;19937;-71
2024/04/11 05:33:37;;;;;;;;;;;;;;;10.01;81.68;93753.69;5422816;26;19944;-71
2024/04/11 05:36:06;;;;;;;;;;;;;;;10.33;81.21;93759.13;5412236;26;20385;-72
2024/04/11 05:38:37;;;;;;;;;;;;;;;10.40;80.99;93754.78;5407534;26;19986;-72
2024/04/11 05:41:03;;;;;;;;;;;;;;;10.55;79.86;93761.53;5414399;26;20383;-72
2024/04/11 05:43:28;;;;;;;;;;;;;;;10.65;79.70;93761.16;5407654;26;19933;-71
2024/04/11 05:45:57;;;;;;;;;;;;;;;10.76;78.88;93768.28;5413223;26;20463;-71
2024/04/11 05:48:23;;;;;;;;;;;;;;;10.98;78.49;93769.88;5445666;26;20320;-71
2024/04/11 05:50:50;;;;;;;;;;;;;;;11.08;78.72;93775.41;5423983;26;19928;-72
2024/04/11 05:53:16;;;;;;;;;;;;;;;11.47;77.80;93758.34;5427577;26;19998;-72
2024/04/11 05:55:41;;;;;;;;;;;;;;;11.62;76.75;93778.69;5444536;26;20420;-71
2024/04/11 05:58:07;;;;;;;;;;;;;;;11.93;75.02;93773.09;5415071;26;19932;-71
2024/04/11 06:00:32;;;;;;;;;;;;;;;12.28;77.35;93765.81;5418070;26;19936;-71
2024/04/11 06:03:08;;;;;;;;;;;;;;;12.48;76.64;93779.59;5411915;26;20344;-72
2024/04/11 06:05:34;;;;;;;;;;;;;;;12.74;73.51;93770.91;5411299;26;19929;-72
2024/04/11 06:07:59;;;;;;;;;;;;;;;13.20;71.85;93779.28;5402390;26;20609;-72
2024/04/11 06:10:24;;;;;;;;;;;;;;;13.51;69.77;93782.00;5416546;26;19929;-72
2024/04/11 06:12:51;;;;;;;;;;;;;;;13.93;69.41;93785.78;5411659;26;20261;-72
2024/04/11 06:15:19;;;;;;;;;;;;;;;14.33;69.02;93785.31;5407280;26;20362;-72
2024/04/11 06:17:45;;;;;;;;;;;;;;;14.65;65.90;93789.44;5411480;26;19935;-71
2024/04/11 06:20:15;;;;;;;;;;;;;;;15.00;61.78;93788.00;5409676;26;19929;-71
2024/04/11 06:22:42;;;;;;;;;;;;;;;15.31;62.51;93794.66;5411185;26;19936;-71
2024/04/11 06:25:09;;;;;;;;;;;;;;;15.62;60.58;93804.91;5411185;26;20349;-71
2024/04/11 06:27:36;;;;;;;;;;;;;;;15.72;58.52;93801.75;5415243;26;20361;-71
2024/04/11 06:30:02;;;;;;;;;;;;;;;15.95;57.45;93803.56;5429033;26;20356;-71
2024/04/11 06:32:31;;;;;;;;;;;;;;;16.23;56.78;93809.00;5439168;26;19978;-71
2024/04/11 06:34:56;;;;;;;;;;;;;;;16.37;54.64;93814.72;5421922;26;19969;-71
2024/04/11 06:37:22;;;;;;;;;;;;;;;16.73;54.76;93805.00;5411822;26;19936;-72
2024/04/11 06:39:49;;;;;;;;;;;;;;;16.73;52.04;93799.81;5425561;26;19936;-72
2024/04/11 06:42:14;;;;;;;;;;;;;;;16.60;51.39;93820.81;5414858;26;19956;-72
2024/04/11 06:44:45;;;;;;;;;;;;;;;16.73;52.58;93812.78;5426374;26;19932;-72
2024/04/11 06:47:11;;;;;;;;;;;;;;;16.95;52.15;93809.53;5411990;26;19938;-72
2024/04/11 06:49:39;;;;;;;;;;;;;;;17.00;51.12;93814.00;5420102;26;19928;-72
2024/04/11 06:52:05;;;;;;;;;;;;;;;17.10;51.11;93824.56;5436528;26;20357;-71
2024/04/11 06:54:30;;;;;;;;;;;;;;;16.93;51.65;93821.91;5445289;26;19941;-71
2024/04/11 06:56:59;;;;;;;;;;;;;;;17.06;51.33;93824.25;5437056;26;19940;-71
2024/04/11 06:59:24;;;;;;;;;;;;;;;17.31;50.12;93820.47;5422019;26;19978;-71
2024/04/11 07:01:52;;;;;;;;;;;;;;;17.36;50.08;93820.56;5414149;26;19933;-72
2024/04/11 07:04:18;;;;;;;;;;;;;;;17.52;51.06;93818.19;5408911;26;19929;-72
2024/04/11 07:06:46;;;;;;;;;;;;;;;17.32;49.52;93826.47;5426320;26;19961;-72
2024/04/11 07:09:11;;;;;;;;;;;;;;;17.50;49.51;93831.41;5411329;26;19936;-72
2024/04/11 07:11:40;;;;;;;;;;;;;;;17.67;50.30;93830.63;5421760;26;20332;-72
2024/04/11 07:14:11;;;;;;;;;;;;;;;17.69;48.76;93832.97;5405473;26;19958;-72
2024/04/11 07:16:40;;;;;;;;;;;;;;;17.71;50.67;93836.13;5422858;26;19935;-72
2024/04/11 07:19:09;;;;;;;;;;;;;;;17.83;48.81;93846.44;5439403;26;19929;-72
2024/04/11 07:21:34;;;;;;;;;;;;;;;17.96;49.21;93838.28;5427513;26;19939;-72
2024/04/11 07:24:00;;;;;;;;;;;;;;;17.53;49.15;93843.16;5446590;26;19932;-72
2024/04/11 07:26:30;;;;;;;;;;;;;;;17.82;49.73;93848.22;5446904;26;19929;-72
2024/04/11 07:29:01;;;;;;;;;;;;;;;18.20;48.10;93856.31;5423690;26;20282;-71
2024/04/11 07:31:30;;;;;;;;;;;;;;;17.96;45.99;93872.06;5419896;26;19932;-71
2024/04/11 07:33:58;;;;;;;;;;;;;;;18.04;46.48;93863.06;5414040;26;19929;-71
2024/04/11 07:36:25;;;;;;;;;;;;;;;18.12;46.72;93860.09;5411325;26;20308;-71
2024/04/11 07:38:52;;;;;;;;;;;;;;;18.33;46.52;93877.78;5419804;26;19929;-71
2024/04/11 07:41:18;;;;;;;;;;;;;;;18.25;46.16;93864.16;5424416;26;19929;-71
2024/04/11 07:43:55;;;;;;;;;;;;;;;17.80;46.28;93860.69;5413803;26;19936;-71
2024/04/11 07:46:22;;;;;;;;;;;;;;;18.09;46.54;93862.41;5426893;26;20026;-71
2024/04/11 07:48:48;;;;;;;;;;;;;;;17.99;46.39;93863.81;5421233;26;19980;-72
2024/04/11 07:51:16;;;;;;;;;;;;;;;18.25;46.61;93871.16;5413052;26;19936;-71
2024/04/11 07:53:46;;;;;;;;;;;;;;;18.14;45.86;93871.03;5402682;26;19929;-71
2024/04/11 07:56:11;;;;;;;;;;;;;;;18.21;46.80;93867.47;5432566;26;19928;-71
2024/04/11 07:58:38;;;;;;;;;;;;;;;18.51;45.08;93863.69;5416232;26;20759;-72
2024/04/11 08:01:04;;;;;;;;;;;;;;;18.66;45.30;93870.88;5431653;26;19935;-71
2024/04/11 08:03:30;;;;;;;;;;;;;;;18.96;44.67;93869.59;5418804;26;19956;-71
2024/04/11 08:05:56;;;;;;;;;;;;;;;19.07;44.05;93886.16;5417045;26;20853;-72
2024/04/11 08:08:21;;;;;;;;;;;;;;;18.82;42.23;93877.81;5446708;26;19935;-72
2024/04/11 08:10:48;;;;;;;;;;;;;;;18.83;42.70;93871.56;5417984;26;20361;-72
2024/04/11 08:13:13;;;;;;;;;;;;;;;18.83;42.75;93884.59;5408282;26;19929;-72
2024/04/11 08:15:40;;;;;;;;;;;;;;;19.09;43.06;93878.88;5411445;26;20282;-71
2024/04/11 08:18:06;;;;;;;;;;;;;;;18.60;42.09;93882.25;5402321;26;19936;-72
2024/04/11 08:20:31;;;;;;;;;;;;;;;18.68;39.99;93887.81;5432545;26;19933;-72
2024/04/11 08:22:58;;;;;;;;;;;;;;;18.82;40.97;93885.63;5418517;26;19957;-72
2024/04/11 08:25:24;;;;;;;;;;;;;;;18.84;40.86;93885.34;5412932;26;20714;-71
2024/04/11 08:27:49;;;;;;;;;;;;;;;19.26;40.41;93880.59;5412866;26;19936;-72
2024/04/11 08:30:15;;;;;;;;;;;;;;;19.09;40.60;93890.09;5425999;26;19932;-72
2024/04/11 08:32:45;;;;;;;;;;;;;;;19.14;38.73;93876.31;5412635;26;19929;-71
2024/04/11 08:35:17;;;;;;;;;;;;;;;19.15;39.73;93884.91;5412732;26;20418;-71
2024/04/11 08:37:52;;;;;;;;;;;;;;;19.15;39.74;93884.91;5406773;26;20341;-71
2024/04/11 08:40:18;;;;;;;;;;;;;;;19.11;38.57;93883.84;5411843;26;20616;-71
2024/04/11 08:42:43;;;;;;;;;;;;;;;18.99;39.18;93886.56;5403256;26;19936;-71
2024/04/11 08:45:09;;;;;;;;;;;;;;;19.20;38.96;93872.72;5421108;26;19933;-71
2024/04/11 08:47:34;;;;;;;;;;;;;;;19.14;38.37;93878.13;5441497;26;20424;-71
2024/04/11 08:50:00;;;;;;;;;;;;;;;19.41;37.66;93877.31;5421819;26;20365;-71
2024/04/11 08:52:29;;;;;;;;;;;;;;;19.42;36.92;93884.88;5405239;26;19936;-71
2024/04/11 08:54:55;;;;;;;;;;;;;;;19.44;37.62;93875.00;5429472;26;19940;-71
2024/04/11 08:57:20;;;;;;;;;;;;;;;19.73;37.97;93877.28;5443269;26;19957;-71
2024/04/11 08:59:46;;;;;;;;;;;;;;;19.79;37.36;93872.13;5435879;26;19933;-71
2024/04/11 09:02:12;;;;;;;;;;;;;;;19.89;35.85;93877.41;5423597;26;20019;-71
2024/04/11 09:04:37;;;;;;;;;;;;;;;19.82;35.35;93882.84;5411163;26;19933;-71
2024/04/11 09:07:04;;;;;;;;;;;;;;;19.92;34.25;93876.09;5421439;26;19977;-71
2024/04/11 09:09:30;;;;;;;;;;;;;;;19.87;35.02;93872.44;5412552;26;19936;-72
2024/04/11 09:11:56;;;;;;;;;;;;;;;20.08;34.54;93877.78;5410838;26;19929;-72
2024/04/11 09:14:22;;;;;;;;;;;;;;;20.11;34.14;93873.91;5420455;26;19929;-72
2024/04/11 09:17:00;;;;;;;;;;;;;;;19.95;33.46;93873.00;5413015;26;19994;-72
2024/04/11 09:19:26;;;;;;;;;;;;;;;19.82;32.01;93871.63;5417973;26;19929;-72
2024/04/11 09:21:53;;;;;;;;;;;;;;;20.17;32.99;93867.66;5411920;26;19936;-72
2024/04/11 09:24:18;;;;;;;;;;;;;;;20.53;32.20;93865.22;5412585;26;19929;-72
2024/04/11 09:26:44;;;;;;;;;;;;;;;20.50;30.54;93865.72;5405145;26;20353;-72
2024/04/11 09:29:11;;;;;;;;;;;;;;;20.38;31.54;93867.78;5421761;26;19941;-71
2024/04/11 09:31:39;;;;;;;;;;;;;;;20.33;31.04;93871.16;5412606;26;19965;-72
2024/04/11 09:34:11;;;;;;;;;;;;;;;20.51;31.01;93874.34;5407392;26;20012;-72
2024/04/11 09:37:04;;;;;;;;;;;;;;;20.53;30.07;93865.22;5414094;26;19940;-72
2024/04/11 09:39:45;;;;;;;;;;;;;;;20.75;30.83;93887.75;5414506;26;20262;-72
2024/04/11 09:42:25;;;;;;;;;;;;;;;20.78;30.95;93878.63;5417814;26;20361;-72
2024/04/11 09:44:52;;;;;;;;;;;;;;;20.57;29.19;93875.94;5414817;26;19966;-72
2024/04/11 09:47:34;;;;;;;;;;;;;;;20.73;30.44;93876.75;5418153;26;20447;-72
2024/04/11 09:50:00;;;;;;;;;;;;;;;20.49;30.60;93856.34;5417938;26;19929;-72
2024/04/11 09:52:34;;;;;;;;;;;;;;;20.79;30.13;93874.97;5416804;26;19932;-72
2024/04/11 09:55:03;;;;;;;;;;;;;;;20.95;30.37;93874.00;5415604;26;19933;-72
2024/04/11 09:57:29;;;;;;;;;;;;;;;21.07;29.51;93878.19;5414850;26;19928;-72
2024/04/11 09:59:55;;;;;;;;;;;;;;;20.96;28.83;93872.94;5414422;26;19929;-72
2024/04/11 10:02:21;;;;;;;;;;;;;;;21.16;28.53;93868.00;5411121;26;19941;-72
2024/04/11 10:04:47;;;;;;;;;;;;;;;21.48;28.49;93857.28;5416795;26;19929;-72
2024/04/11 10:07:19;;;;;;;;;;;;;;;21.41;28.24;93862.00;5391467;26;19948;-72
2024/04/11 10:09:54;;;;;;;;;;;;;;;21.25;27.50;93866.47;5389662;26;19936;-72
2024/04/11 10:12:19;;;;;;;;;;;;;;;21.68;27.54;93857.53;5396584;26;19937;-72
2024/04/11 10:14:48;;;;;;;;;;;;;;;21.82;27.61;93861.22;5413469;26;20404;-72
2024/04/11 10:17:13;;;;;;;;;;;;;;;21.46;26.63;93856.00;5414162;26;19929;-72
2024/04/11 10:19:43;;;;;;;;;;;;;;;21.48;25.94;93872.22;5420697;26;20253;-72
2024/04/11 10:22:09;;;;;;;;;;;;;;;21.75;26.56;93861.50;5412274;26;19974;-72
2024/04/11 10:24:37;;;;;;;;;;;;;;;21.91;26.17;93863.28;5414932;26;20222;-72
2024/04/11 10:27:10;;;;;;;;;;;;;;;21.92;25.81;93868.25;5412062;26;19935;-72
2024/04/11 10:29:46;;;;;;;;;;;;;;;21.89;24.37;93868.78;5411481;26;19929;-72
2024/04/11 10:32:21;;;;;;;;;;;;;;;22.21;25.64;93865.06;5406790;26;19929;-72
2024/04/11 10:34:56;;;;;;;;;;;;;;;22.02;25.70;93860.41;5419753;26;19929;-72
2024/04/11 10:37:26;;;;;;;;;;;;;;;21.98;25.09;93848.91;5411943;26;19945;-72
2024/04/11 10:39:57;;;;;;;;;;;;;;;22.40;23.58;93867.88;5414888;26;20345;-72
2024/04/11 10:42:36;;;;;;;;;;;;;;;22.02;23.58;93868.25;5409625;26;19972;-72
2024/04/11 10:45:07;;;;;;;;;;;;;;;22.06;24.42;93868.50;5417524;26;19940;-72
2024/04/11 10:47:35;;;;;;;;;;;;;;;22.25;24.94;93870.53;5411410;26;19932;-72
2024/04/11 10:50:02;;;;;;;;;;;;;;;22.50;25.11;93874.13;5431230;26;19937;-72
2024/04/11 10:52:29;;;;;;;;;;;;;;;22.64;24.66;93863.88;5443690;26;19996;-72
2024/04/11 10:55:12;;;;;;;;;;;;;;;22.77;24.22;93876.38;5399508;26;19998;-72
2024/04/11 10:57:38;;;;;;;;;;;;;;;22.54;24.36;93862.88;5430318;26;19936;-72
2024/04/11 11:00:10;;;;;;;;;;;;;;;22.55;24.49;93871.53;5427870;26;19964;-72
2024/04/11 11:02:37;;;;;;;;;;;;;;;22.25;24.71;93867.91;5407178;26;19929;-72
2024/04/11 11:05:06;;;;;;;;;;;;;;;22.67;25.54;93855.47;5427723;26;19936;-72
2024/04/11 11:07:31;;;;;;;;;;;;;;;22.73;24.74;93859.63;5414717;26;19948;-72
2024/04/11 11:09:57;;;;;;;;;;;;;;;22.57;25.11;93861.53;5429076;26;19940;-72
2024/04/11 11:12:23;;;;;;;;;;;;;;;22.78;25.19;93864.84;5422593;26;20348;-72
2024/04/11 11:14:49;;;;;;;;;;;;;;;22.50;24.46;93861.03;5416431;26;19932;-72
2024/04/11 11:17:17;;;;;;;;;;;;;;;22.62;24.59;93863.34;5419051;26;20357;-72
2024/04/11 11:19:43;;;;;;;;;;;;;;;22.60;24.92;93868.09;5421483;26;19929;-72
2024/04/11 11:22:09;;;;;;;;;;;;;;;22.37;24.94;93859.78;5411486;26;19929;-72
2024/04/11 11:24:34;;;;;;;;;;;;;;;22.81;24.83;93853.03;5412409;26;19928;-72
2024/04/11 11:27:00;;;;;;;;;;;;;;;22.89;24.51;93855.09;5410047;26;19929;-72
2024/04/11 11:29:26;;;;;;;;;;;;;;;23.05;25.14;93860.25;5413407;26;19937;-72
2024/04/11 11:31:53;;;;;;;;;;;;;;;22.92;24.48;93857.16;5415496;26;20383;-72
2024/04/11 11:34:27;;;;;;;;;;;;;;;22.74;25.26;93855.19;5414438;26;19936;-72
2024/04/11 11:36:57;;;;;;;;;;;;;;;22.67;25.10;93843.19;5422069;26;19998;-72
2024/04/11 11:39:25;;;;;;;;;;;;;;;22.69;25.57;93850.78;5418067;26;19933;-72
2024/04/11 11:42:10;;;;;;;;;;;;;;;22.98;26.50;93847.44;5415923;26;19929;-72
2024/04/11 11:47:35;;;;;;;;;;;;;;;22.95;26.19;93833.06;5418854;26;19935;-73
2024/04/11 11:50:07;;;;;;;;;;;;;;;22.92;26.05;93836.22;5418574;26;19945;-73
2024/04/11 11:52:35;;;;;;;;;;;;;;;23.09;25.97;93837.69;5421884;26;19935;-72
2024/04/11 11:55:03;;;;;;;;;;;;;;;22.75;25.88;93835.78;5422338;26;19932;-72
2024/04/11 11:57:39;;;;;;;;;;;;;;;22.82;25.41;93820.59;5413265;26;19936;-72
2024/04/11 12:00:18;;;;;;;;;;;;;;;22.85;25.41;93824.50;5419010;26;19986;-72
2024/04/11 12:02:45;;;;;;;;;;;;;;;23.38;26.03;93823.09;5417789;26;20608;-72
2024/04/11 12:05:14;;;;;;;;;;;;;;;23.38;25.69;93826.50;5420829;26;19935;-72
2024/04/11 12:07:43;;;;;;;;;;;;;;;23.57;26.05;93826.59;5421394;26;20349;-72
2024/04/11 12:10:14;;;;;;;;;;;;;;;23.02;25.87;93824.09;5435742;26;19936;-72
2024/04/11 12:12:43;;;;;;;;;;;;;;;23.45;25.59;93818.31;5424041;26;20558;-72
2024/04/11 12:15:08;;;;;;;;;;;;;;;23.33;25.63;93814.19;5417712;26;19941;-72
2024/04/11 12:17:35;;;;;;;;;;;;;;;23.30;26.22;93812.13;5421645;26;20458;-72
2024/04/11 12:20:07;;;;;;;;;;;;;;;23.75;26.83;93812.00;5417510;26;19928;-72
2024/04/11 12:22:33;;;;;;;;;;;;;;;24.10;27.11;93811.13;5417389;26;20364;-72
2024/04/11 12:24:59;;;;;;;;;;;;;;;23.89;27.36;93809.50;5417463;26;19929;-72
2024/04/11 12:27:24;;;;;;;;;;;;;;;23.78;27.42;93813.28;5419659;26;19929;-72
2024/04/11 12:29:49;;;;;;;;;;;;;;;23.54;27.08;93813.25;5421879;26;20322;-72
2024/04/11 12:32:18;;;;;;;;;;;;;;;23.46;27.07;93812.78;5417455;26;20384;-72
2024/04/11 12:34:45;;;;;;;;;;;;;;;23.00;26.88;93802.66;5417566;26;20454;-71
2024/04/11 12:37:13;;;;;;;;;;;;;;;22.86;27.59;93802.47;5428306;26;20387;-72
2024/04/11 12:39:45;;;;;;;;;;;;;;;22.71;27.87;93803.38;5436294;26;19939;-72
2024/04/11 12:42:15;;;;;;;;;;;;;;;23.05;27.82;93805.25;5406009;26;20345;-72
2024/04/11 12:44:45;;;;;;;;;;;;;;;22.72;27.75;93813.56;5428278;26;20436;-72
2024/04/11 12:47:23;;;;;;;;;;;;;;;23.03;28.28;93813.38;5410210;26;19929;-72
2024/04/11 12:49:48;;;;;;;;;;;;;;;23.22;28.03;93804.81;5411874;26;19936;-72
2024/04/11 12:52:15;;;;;;;;;;;;;;;23.20;28.16;93810.34;5411221;26;19933;-73
2024/04/11 12:54:40;;;;;;;;;;;;;;;23.17;28.42;93799.63;5408127;26;19940;-72